sensor_id;sensor_type;location;lat;lon;timestamp;temperature;humidity
26254;DHT22;53339;51.378;0.094;2023-12-04T00:01:46;7.10;93.30
26254;DHT22;53339;51.378;0.094;2023-12-04T00:04:14;7.10;93.30
26254;DHT22;53339;51.378;0.094;2023-12-04T00:06:43;7.00;93.30
26254;DHT22;53339;51.378;0.094;2023-12-04T00:09:11;7.00;93.30
26254;DHT22;53339;51.378;0.094;2023-12-04T00:11:39;6.90;93.20
26254;DHT22;53339;51.378;0.094;2023-12-04T00:14:07;6.90;93.20
26254;DHT22;53339;51.378;0.094;2023-12-04T00:16:36;6.80;93.20
26254;DHT22;53339;51.378;0.094;2023-12-04T00:19:03;6.80;93.20
26254;DHT22;53339;51.378;0.094;2023-12-04T00:21:33;6.70;93.20
26254;DHT22;53339;51.378;0.094;2023-12-04T00:24:01;6.70;93.20
26254;DHT22;53339;51.378;0.094;2023-12-04T00:26:30;6.70;93.20
26254;DHT22;53339;51.378;0.094;2023-12-04T00:28:58;6.70;93.20
26254;DHT22;53339;51.378;0.094;2023-12-04T00:31:26;6.60;93.20
26254;DHT22;53339;51.378;0.094;2023-12-04T00:33:54;6.60;93.20
26254;DHT22;53339;51.378;0.094;2023-12-04T00:36:26;6.60;93.20
26254;DHT22;53339;51.378;0.094;2023-12-04T00:38:55;6.60;93.20
26254;DHT22;53339;51.378;0.094;2023-12-04T00:41:23;6.60;93.20
26254;DHT22;53339;51.378;0.094;2023-12-04T00:43:52;6.50;93.20
26254;DHT22;53339;51.378;0.094;2023-12-04T00:46:23;6.50;93.20
26254;DHT22;53339;51.378;0.094;2023-12-04T00:48:51;6.50;93.30
26254;DHT22;53339;51.378;0.094;2023-12-04T00:51:19;6.40;93.20
26254;DHT22;53339;51.378;0.094;2023-12-04T00:53:47;6.40;93.20
26254;DHT22;53339;51.378;0.094;2023-12-04T00:56:15;6.40;93.20
26254;DHT22;53339;51.378;0.094;2023-12-04T00:58:44;6.40;93.20
26254;DHT22;53339;51.378;0.094;2023-12-04T01:01:15;6.40;93.20
26254;DHT22;53339;51.378;0.094;2023-12-04T01:03:43;6.40;93.20
26254;DHT22;53339;51.378;0.094;2023-12-04T01:06:20;6.20;93.10
26254;DHT22;53339;51.378;0.094;2023-12-04T01:08:53;6.10;93.00
26254;DHT22;53339;51.378;0.094;2023-12-04T01:11:22;6.10;93.10
26254;DHT22;53339;51.378;0.094;2023-12-04T01:13:51;6.10;93.10
26254;DHT22;53339;51.378;0.094;2023-12-04T01:16:19;6.00;93.10
26254;DHT22;53339;51.378;0.094;2023-12-04T01:18:50;5.90;93.00
26254;DHT22;53339;51.378;0.094;2023-12-04T01:21:18;5.90;93.10
26254;DHT22;53339;51.378;0.094;2023-12-04T01:23:46;5.90;93.10
26254;DHT22;53339;51.378;0.094;2023-12-04T01:26:14;5.90;93.10
26254;DHT22;53339;51.378;0.094;2023-12-04T01:28:42;5.80;93.10
26254;DHT22;53339;51.378;0.094;2023-12-04T01:31:10;5.90;93.10
26254;DHT22;53339;51.378;0.094;2023-12-04T01:33:38;5.90;93.20
26254;DHT22;53339;51.378;0.094;2023-12-04T01:36:07;5.90;93.20
26254;DHT22;53339;51.378;0.094;2023-12-04T01:38:37;5.70;93.10
26254;DHT22;53339;51.378;0.094;2023-12-04T01:41:06;5.70;93.10
26254;DHT22;53339;51.378;0.094;2023-12-04T01:43:34;5.80;93.20
26254;DHT22;53339;51.378;0.094;2023-12-04T01:46:02;5.80;93.20
26254;DHT22;53339;51.378;0.094;2023-12-04T01:48:33;5.70;93.10
26254;DHT22;53339;51.378;0.094;2023-12-04T01:51:03;5.70;93.10
26254;DHT22;53339;51.378;0.094;2023-12-04T01:53:33;5.70;93.20
26254;DHT22;53339;51.378;0.094;2023-12-04T01:56:03;5.70;93.20
26254;DHT22;53339;51.378;0.094;2023-12-04T01:58:32;5.60;93.10
26254;DHT22;53339;51.378;0.094;2023-12-04T02:01:01;5.60;93.10
26254;DHT22;53339;51.378;0.094;2023-12-04T02:03:30;5.60;93.20
26254;DHT22;53339;51.378;0.094;2023-12-04T02:05:59;5.60;93.20
26254;DHT22;53339;51.378;0.094;2023-12-04T02:08:31;5.50;93.10
26254;DHT22;53339;51.378;0.094;2023-12-04T02:11:00;5.50;93.10
26254;DHT22;53339;51.378;0.094;2023-12-04T02:13:28;5.50;93.20
26254;DHT22;53339;51.378;0.094;2023-12-04T02:15:58;5.60;93.20
26254;DHT22;53339;51.378;0.094;2023-12-04T02:18:28;5.50;93.10
26254;DHT22;53339;51.378;0.094;2023-12-04T02:20:57;5.50;93.10
26254;DHT22;53339;51.378;0.094;2023-12-04T02:23:25;5.50;93.20
26254;DHT22;53339;51.378;0.094;2023-12-04T02:25:59;5.60;93.20
26254;DHT22;53339;51.378;0.094;2023-12-04T02:28:36;5.50;93.20
26254;DHT22;53339;51.378;0.094;2023-12-04T02:31:09;5.50;93.20
26254;DHT22;53339;51.378;0.094;2023-12-04T02:33:38;5.60;93.20
26254;DHT22;53339;51.378;0.094;2023-12-04T02:36:08;5.60;93.20
26254;DHT22;53339;51.378;0.094;2023-12-04T02:38:38;5.50;93.20
26254;DHT22;53339;51.378;0.094;2023-12-04T02:41:06;5.50;93.20
26254;DHT22;53339;51.378;0.094;2023-12-04T02:43:34;5.60;93.30
26254;DHT22;53339;51.378;0.094;2023-12-04T02:46:03;5.60;93.30
26254;DHT22;53339;51.378;0.094;2023-12-04T02:48:31;5.60;93.30
26254;DHT22;53339;51.378;0.094;2023-12-04T02:50:59;5.60;93.30
26254;DHT22;53339;51.378;0.094;2023-12-04T02:53:27;5.60;93.30
26254;DHT22;53339;51.378;0.094;2023-12-04T02:55:55;5.70;93.40
26254;DHT22;53339;51.378;0.094;2023-12-04T02:58:23;5.70;93.30
26254;DHT22;53339;51.378;0.094;2023-12-04T03:00:52;5.60;93.30
26254;DHT22;53339;51.378;0.094;2023-12-04T03:03:20;5.70;93.30
26254;DHT22;53339;51.378;0.094;2023-12-04T03:05:48;5.70;93.40
26254;DHT22;53339;51.378;0.094;2023-12-04T03:08:16;5.70;93.30
26254;DHT22;53339;51.378;0.094;2023-12-04T03:10:44;5.60;93.30
26254;DHT22;53339;51.378;0.094;2023-12-04T03:13:12;5.70;93.30
26254;DHT22;53339;51.378;0.094;2023-12-04T03:15:40;5.70;93.40
26254;DHT22;53339;51.378;0.094;2023-12-04T03:18:08;5.70;93.40
26254;DHT22;53339;51.378;0.094;2023-12-04T03:20:39;5.70;93.30
26254;DHT22;53339;51.378;0.094;2023-12-04T03:23:07;5.70;93.30
26254;DHT22;53339;51.378;0.094;2023-12-04T03:25:35;5.80;93.40
26254;DHT22;53339;51.378;0.094;2023-12-04T03:28:04;5.80;93.40
26254;DHT22;53339;51.378;0.094;2023-12-04T03:30:32;5.70;93.30
26254;DHT22;53339;51.378;0.094;2023-12-04T03:33:01;5.70;93.30
26254;DHT22;53339;51.378;0.094;2023-12-04T03:35:29;5.80;93.40
26254;DHT22;53339;51.378;0.094;2023-12-04T03:37:57;5.90;93.40
26254;DHT22;53339;51.378;0.094;2023-12-04T03:40:25;5.70;93.30
26254;DHT22;53339;51.378;0.094;2023-12-04T03:42:54;5.70;93.30
26254;DHT22;53339;51.378;0.094;2023-12-04T03:45:21;5.80;93.40
26254;DHT22;53339;51.378;0.094;2023-12-04T03:47:53;5.90;93.40
26254;DHT22;53339;51.378;0.094;2023-12-04T03:50:22;5.80;93.30
26254;DHT22;53339;51.378;0.094;2023-12-04T03:52:51;5.70;93.30
26254;DHT22;53339;51.378;0.094;2023-12-04T03:55:19;5.80;93.40
26254;DHT22;53339;51.378;0.094;2023-12-04T03:57:47;5.80;93.40
26254;DHT22;53339;51.378;0.094;2023-12-04T04:00:16;5.80;93.30
26254;DHT22;53339;51.378;0.094;2023-12-04T04:02:44;5.70;93.30
26254;DHT22;53339;51.378;0.094;2023-12-04T04:05:13;5.80;93.40
26254;DHT22;53339;51.378;0.094;2023-12-04T04:07:41;5.90;93.40
26254;DHT22;53339;51.378;0.094;2023-12-04T04:10:09;5.90;93.40
26254;DHT22;53339;51.378;0.094;2023-12-04T04:12:42;5.80;93.40
26254;DHT22;53339;51.378;0.094;2023-12-04T04:15:12;5.90;93.40
26254;DHT22;53339;51.378;0.094;2023-12-04T04:17:40;5.90;93.50
26254;DHT22;53339;51.378;0.094;2023-12-04T04:20:09;5.90;93.40
26254;DHT22;53339;51.378;0.094;2023-12-04T04:22:38;5.90;93.40
26254;DHT22;53339;51.378;0.094;2023-12-04T04:25:09;5.90;93.40
26254;DHT22;53339;51.378;0.094;2023-12-04T04:27:37;6.00;93.50
26254;DHT22;53339;51.378;0.094;2023-12-04T04:30:05;6.00;93.50
26254;DHT22;53339;51.378;0.094;2023-12-04T04:32:33;5.90;93.40
26254;DHT22;53339;51.378;0.094;2023-12-04T04:35:02;5.90;93.40
26254;DHT22;53339;51.378;0.094;2023-12-04T04:37:30;6.00;93.50
26254;DHT22;53339;51.378;0.094;2023-12-04T04:39:58;6.00;93.40
26254;DHT22;53339;51.378;0.094;2023-12-04T04:42:27;5.90;93.40
26254;DHT22;53339;51.378;0.094;2023-12-04T04:44:55;5.90;93.40
26254;DHT22;53339;51.378;0.094;2023-12-04T04:47:23;6.00;93.40
26254;DHT22;53339;51.378;0.094;2023-12-04T04:49:50;6.00;93.40
26254;DHT22;53339;51.378;0.094;2023-12-04T04:52:18;5.90;93.40
26254;DHT22;53339;51.378;0.094;2023-12-04T04:54:47;5.90;93.40
26254;DHT22;53339;51.378;0.094;2023-12-04T04:57:15;5.90;93.40
26254;DHT22;53339;51.378;0.094;2023-12-04T04:59:43;6.00;93.40
26254;DHT22;53339;51.378;0.094;2023-12-04T05:02:11;5.90;93.40
26254;DHT22;53339;51.378;0.094;2023-12-04T05:04:40;5.90;93.40
26254;DHT22;53339;51.378;0.094;2023-12-04T05:07:08;5.90;93.40
26254;DHT22;53339;51.378;0.094;2023-12-04T05:09:36;5.90;93.40
26254;DHT22;53339;51.378;0.094;2023-12-04T05:12:05;5.90;93.40
26254;DHT22;53339;51.378;0.094;2023-12-04T05:14:33;5.80;93.40
26254;DHT22;53339;51.378;0.094;2023-12-04T05:17:01;5.90;93.40
26254;DHT22;53339;51.378;0.094;2023-12-04T05:19:29;5.90;93.40
26254;DHT22;53339;51.378;0.094;2023-12-04T05:21:57;5.90;93.40
26254;DHT22;53339;51.378;0.094;2023-12-04T05:24:25;5.80;93.40
26254;DHT22;53339;51.378;0.094;2023-12-04T05:26:56;5.90;93.40
26254;DHT22;53339;51.378;0.094;2023-12-04T05:29:28;5.90;93.40
26254;DHT22;53339;51.378;0.094;2023-12-04T05:31:59;5.90;93.40
26254;DHT22;53339;51.378;0.094;2023-12-04T05:34:30;5.80;93.40
26254;DHT22;53339;51.378;0.094;2023-12-04T05:36:58;5.90;93.40
26254;DHT22;53339;51.378;0.094;2023-12-04T05:39:26;5.90;93.50
26254;DHT22;53339;51.378;0.094;2023-12-04T05:41:55;5.90;93.50
26254;DHT22;53339;51.378;0.094;2023-12-04T05:44:25;5.90;93.40
26254;DHT22;53339;51.378;0.094;2023-12-04T05:46:53;5.80;93.40
26254;DHT22;53339;51.378;0.094;2023-12-04T05:49:21;5.90;93.50
26254;DHT22;53339;51.378;0.094;2023-12-04T05:51:51;6.00;93.50
26254;DHT22;53339;51.378;0.094;2023-12-04T05:54:20;6.00;93.50
26254;DHT22;53339;51.378;0.094;2023-12-04T05:56:51;6.00;93.50
26254;DHT22;53339;51.378;0.094;2023-12-04T05:59:22;6.10;93.50
26254;DHT22;53339;51.378;0.094;2023-12-04T06:01:50;6.10;93.50
26254;DHT22;53339;51.378;0.094;2023-12-04T06:04:22;5.90;93.40
26254;DHT22;53339;51.378;0.094;2023-12-04T06:06:51;5.90;93.40
26254;DHT22;53339;51.378;0.094;2023-12-04T06:09:19;5.90;93.50
26254;DHT22;53339;51.378;0.094;2023-12-04T06:11:47;6.00;93.50
26254;DHT22;53339;51.378;0.094;2023-12-04T06:14:18;5.90;93.40
26254;DHT22;53339;51.378;0.094;2023-12-04T06:16:46;5.90;93.40
26254;DHT22;53339;51.378;0.094;2023-12-04T06:19:15;6.00;93.50
26254;DHT22;53339;51.378;0.094;2023-12-04T06:21:43;6.00;93.50
26254;DHT22;53339;51.378;0.094;2023-12-04T06:24:11;5.90;93.40
26254;DHT22;53339;51.378;0.094;2023-12-04T06:26:43;5.90;93.40
26254;DHT22;53339;51.378;0.094;2023-12-04T06:29:12;6.00;93.50
26254;DHT22;53339;51.378;0.094;2023-12-04T06:31:41;6.00;93.50
26254;DHT22;53339;51.378;0.094;2023-12-04T06:34:10;5.90;93.40
26254;DHT22;53339;51.378;0.094;2023-12-04T06:36:38;5.90;93.40
26254;DHT22;53339;51.378;0.094;2023-12-04T06:39:12;5.90;93.50
26254;DHT22;53339;51.378;0.094;2023-12-04T06:41:42;5.90;93.50
26254;DHT22;53339;51.378;0.094;2023-12-04T06:44:10;5.90;93.40
26254;DHT22;53339;51.378;0.094;2023-12-04T06:46:41;5.80;93.40
26254;DHT22;53339;51.378;0.094;2023-12-04T06:49:12;5.80;93.40
26254;DHT22;53339;51.378;0.094;2023-12-04T06:51:41;5.90;93.50
26254;DHT22;53339;51.378;0.094;2023-12-04T06:54:09;5.90;93.50
26254;DHT22;53339;51.378;0.094;2023-12-04T06:56:38;5.90;93.40
26254;DHT22;53339;51.378;0.094;2023-12-04T06:59:06;5.90;93.50
26254;DHT22;53339;51.378;0.094;2023-12-04T07:01:34;6.00;93.50
26254;DHT22;53339;51.378;0.094;2023-12-04T07:04:03;5.90;93.50
26254;DHT22;53339;51.378;0.094;2023-12-04T07:06:39;5.80;93.40
26254;DHT22;53339;51.378;0.094;2023-12-04T07:09:12;5.90;93.40
26254;DHT22;53339;51.378;0.094;2023-12-04T07:11:40;5.90;93.50
26254;DHT22;53339;51.378;0.094;2023-12-04T07:14:11;5.90;93.40
26254;DHT22;53339;51.378;0.094;2023-12-04T07:16:43;5.80;93.40
26254;DHT22;53339;51.378;0.094;2023-12-04T07:19:11;5.90;93.50
26254;DHT22;53339;51.378;0.094;2023-12-04T07:21:41;5.90;93.50
26254;DHT22;53339;51.378;0.094;2023-12-04T07:24:09;5.90;93.50
26254;DHT22;53339;51.378;0.094;2023-12-04T07:26:37;5.90;93.40
26254;DHT22;53339;51.378;0.094;2023-12-04T07:29:05;5.90;93.50
26254;DHT22;53339;51.378;0.094;2023-12-04T07:31:37;6.00;93.50
26254;DHT22;53339;51.378;0.094;2023-12-04T07:34:05;6.00;93.50
26254;DHT22;53339;51.378;0.094;2023-12-04T07:36:33;5.90;93.40
26254;DHT22;53339;51.378;0.094;2023-12-04T07:39:01;5.90;93.50
26254;DHT22;53339;51.378;0.094;2023-12-04T07:41:31;6.00;93.50
26254;DHT22;53339;51.378;0.094;2023-12-04T07:43:59;6.00;93.50
26254;DHT22;53339;51.378;0.094;2023-12-04T07:46:27;6.00;93.50
26254;DHT22;53339;51.378;0.094;2023-12-04T07:48:55;5.90;93.50
26254;DHT22;53339;51.378;0.094;2023-12-04T07:51:23;6.00;93.50
26254;DHT22;53339;51.378;0.094;2023-12-04T07:53:51;6.10;93.50
26254;DHT22;53339;51.378;0.094;2023-12-04T07:56:19;6.00;93.50
26254;DHT22;53339;51.378;0.094;2023-12-04T07:58:47;5.90;93.50
26254;DHT22;53339;51.378;0.094;2023-12-04T08:01:15;6.00;93.50
26254;DHT22;53339;51.378;0.094;2023-12-04T08:03:43;6.00;93.60
26254;DHT22;53339;51.378;0.094;2023-12-04T08:06:11;6.00;93.50
26254;DHT22;53339;51.378;0.094;2023-12-04T08:08:39;6.00;93.50
26254;DHT22;53339;51.378;0.094;2023-12-04T08:11:09;6.00;93.50
26254;DHT22;53339;51.378;0.094;2023-12-04T08:13:40;6.10;93.60
26254;DHT22;53339;51.378;0.094;2023-12-04T08:16:15;6.10;93.50
26254;DHT22;53339;51.378;0.094;2023-12-04T08:18:42;6.00;93.50
26254;DHT22;53339;51.378;0.094;2023-12-04T08:21:11;6.00;93.50
26254;DHT22;53339;51.378;0.094;2023-12-04T08:23:39;6.10;93.60
26254;DHT22;53339;51.378;0.094;2023-12-04T08:26:07;6.10;93.50
26254;DHT22;53339;51.378;0.094;2023-12-04T08:28:35;6.00;93.50
26254;DHT22;53339;51.378;0.094;2023-12-04T08:31:04;6.10;93.60
26254;DHT22;53339;51.378;0.094;2023-12-04T08:33:32;6.20;93.60
26254;DHT22;53339;51.378;0.094;2023-12-04T08:35:59;6.20;93.60
26254;DHT22;53339;51.378;0.094;2023-12-04T08:38:27;6.10;93.50
26254;DHT22;53339;51.378;0.094;2023-12-04T08:40:55;6.20;93.60
26254;DHT22;53339;51.378;0.094;2023-12-04T08:43:23;6.30;93.60
26254;DHT22;53339;51.378;0.094;2023-12-04T08:45:51;6.30;93.60
26254;DHT22;53339;51.378;0.094;2023-12-04T08:48:19;6.30;93.50
26254;DHT22;53339;51.378;0.094;2023-12-04T08:50:47;6.30;93.60
26254;DHT22;53339;51.378;0.094;2023-12-04T08:53:15;6.40;93.70
26254;DHT22;53339;51.378;0.094;2023-12-04T08:55:43;6.50;93.70
26254;DHT22;53339;51.378;0.094;2023-12-04T08:58:12;6.40;93.60
26254;DHT22;53339;51.378;0.094;2023-12-04T09:00:39;6.40;93.60
26254;DHT22;53339;51.378;0.094;2023-12-04T09:03:10;6.40;93.60
26254;DHT22;53339;51.378;0.094;2023-12-04T09:05:44;6.50;93.60
26254;DHT22;53339;51.378;0.094;2023-12-04T09:08:12;6.40;93.50
26254;DHT22;53339;51.378;0.094;2023-12-04T09:10:53;6.40;93.60
26254;DHT22;53339;51.378;0.094;2023-12-04T09:13:29;6.50;93.60
26254;DHT22;53339;51.378;0.094;2023-12-04T09:15:59;6.50;93.60
26254;DHT22;53339;51.378;0.094;2023-12-04T09:18:27;6.40;93.50
26254;DHT22;53339;51.378;0.094;2023-12-04T09:20:55;6.40;93.50
26254;DHT22;53339;51.378;0.094;2023-12-04T09:23:23;6.40;93.60
26254;DHT22;53339;51.378;0.094;2023-12-04T09:25:52;6.50;93.60
26254;DHT22;53339;51.378;0.094;2023-12-04T09:28:20;6.40;93.60
26254;DHT22;53339;51.378;0.094;2023-12-04T09:30:48;6.40;93.60
26254;DHT22;53339;51.378;0.094;2023-12-04T09:33:15;6.50;93.60
26254;DHT22;53339;51.378;0.094;2023-12-04T09:35:44;6.60;93.70
26254;DHT22;53339;51.378;0.094;2023-12-04T09:38:12;6.60;93.60
26254;DHT22;53339;51.378;0.094;2023-12-04T09:40:39;6.50;93.60
26254;DHT22;53339;51.378;0.094;2023-12-04T09:43:07;6.60;93.70
26254;DHT22;53339;51.378;0.094;2023-12-04T09:45:36;6.60;93.70
26254;DHT22;53339;51.378;0.094;2023-12-04T09:48:06;6.60;93.60
26254;DHT22;53339;51.378;0.094;2023-12-04T09:50:34;6.50;93.60
26254;DHT22;53339;51.378;0.094;2023-12-04T09:53:02;6.60;93.60
26254;DHT22;53339;51.378;0.094;2023-12-04T09:55:30;6.60;93.70
26254;DHT22;53339;51.378;0.094;2023-12-04T09:57:59;6.60;93.60
26254;DHT22;53339;51.378;0.094;2023-12-04T10:00:27;6.60;93.60
26254;DHT22;53339;51.378;0.094;2023-12-04T10:02:57;6.60;93.60
26254;DHT22;53339;51.378;0.094;2023-12-04T10:05:30;6.60;93.70
26254;DHT22;53339;51.378;0.094;2023-12-04T10:07:57;6.70;93.70
26254;DHT22;53339;51.378;0.094;2023-12-04T10:10:25;6.60;93.60
26254;DHT22;53339;51.378;0.094;2023-12-04T10:12:53;6.70;93.70
26254;DHT22;53339;51.378;0.094;2023-12-04T10:15:27;6.80;93.70
26254;DHT22;53339;51.378;0.094;2023-12-04T10:17:55;6.80;93.70
26254;DHT22;53339;51.378;0.094;2023-12-04T10:20:23;6.80;93.70
26254;DHT22;53339;51.378;0.094;2023-12-04T10:22:59;6.80;93.70
26254;DHT22;53339;51.378;0.094;2023-12-04T10:25:29;7.00;93.80
26254;DHT22;53339;51.378;0.094;2023-12-04T10:28:09;7.10;93.80
26254;DHT22;53339;51.378;0.094;2023-12-04T10:30:37;7.00;93.70
26254;DHT22;53339;51.378;0.094;2023-12-04T10:33:06;7.00;93.80
26254;DHT22;53339;51.378;0.094;2023-12-04T10:35:36;7.10;93.80
26254;DHT22;53339;51.378;0.094;2023-12-04T10:38:05;7.20;93.80
26254;DHT22;53339;51.378;0.094;2023-12-04T10:40:35;7.10;93.70
26254;DHT22;53339;51.378;0.094;2023-12-04T10:45:40;7.20;93.80
26254;DHT22;53339;51.378;0.094;2023-12-04T10:48:09;7.30;93.70
26254;DHT22;53339;51.378;0.094;2023-12-04T10:50:42;7.20;93.60
26254;DHT22;53339;51.378;0.094;2023-12-04T10:53:11;7.20;93.70
26254;DHT22;53339;51.378;0.094;2023-12-04T10:55:43;7.20;93.80
26254;DHT22;53339;51.378;0.094;2023-12-04T10:58:15;7.30;93.70
26254;DHT22;53339;51.378;0.094;2023-12-04T11:00:49;7.30;93.70
26254;DHT22;53339;51.378;0.094;2023-12-04T11:03:25;7.30;93.70
26254;DHT22;53339;51.378;0.094;2023-12-04T11:06:01;7.40;93.80
26254;DHT22;53339;51.378;0.094;2023-12-04T11:08:29;7.40;93.80
26254;DHT22;53339;51.378;0.094;2023-12-04T11:11:02;7.40;93.70
26254;DHT22;53339;51.378;0.094;2023-12-04T11:13:34;7.40;93.70
26254;DHT22;53339;51.378;0.094;2023-12-04T11:16:46;7.50;93.80
26254;DHT22;53339;51.378;0.094;2023-12-04T11:21:53;7.40;93.70
26254;DHT22;53339;51.378;0.094;2023-12-04T11:24:24;7.50;93.70
26254;DHT22;53339;51.378;0.094;2023-12-04T11:26:52;7.60;93.80
26254;DHT22;53339;51.378;0.094;2023-12-04T11:29:21;7.60;93.70
26254;DHT22;53339;51.378;0.094;2023-12-04T11:31:49;7.50;93.70
26254;DHT22;53339;51.378;0.094;2023-12-04T11:34:17;7.50;93.70
26254;DHT22;53339;51.378;0.094;2023-12-04T11:36:47;7.60;93.70
26254;DHT22;53339;51.378;0.094;2023-12-04T11:39:15;7.60;93.70
26254;DHT22;53339;51.378;0.094;2023-12-04T11:41:45;7.50;93.60
26254;DHT22;53339;51.378;0.094;2023-12-04T11:44:13;7.50;93.70
26254;DHT22;53339;51.378;0.094;2023-12-04T11:47:02;7.50;93.70
26254;DHT22;53339;51.378;0.094;2023-12-04T11:49:32;7.50;93.60
26254;DHT22;53339;51.378;0.094;2023-12-04T11:52:04;7.40;93.60
26254;DHT22;53339;51.378;0.094;2023-12-04T11:57:33;7.50;93.70
26254;DHT22;53339;51.378;0.094;2023-12-04T12:00:12;7.50;93.60
26254;DHT22;53339;51.378;0.094;2023-12-04T12:05:39;7.50;93.70
26254;DHT22;53339;51.378;0.094;2023-12-04T12:08:09;7.60;93.70
26254;DHT22;53339;51.378;0.094;2023-12-04T12:10:37;7.60;93.70
26254;DHT22;53339;51.378;0.094;2023-12-04T12:13:05;7.50;93.60
26254;DHT22;53339;51.378;0.094;2023-12-04T12:15:33;7.50;93.70
26254;DHT22;53339;51.378;0.094;2023-12-04T12:18:01;7.60;93.80
26254;DHT22;53339;51.378;0.094;2023-12-04T12:20:29;7.60;93.70
26254;DHT22;53339;51.378;0.094;2023-12-04T12:22:57;7.50;93.60
26254;DHT22;53339;51.378;0.094;2023-12-04T12:25:25;7.40;93.60
26254;DHT22;53339;51.378;0.094;2023-12-04T12:27:53;7.50;93.70
26254;DHT22;53339;51.378;0.094;2023-12-04T12:30:21;7.50;93.70
26254;DHT22;53339;51.378;0.094;2023-12-04T12:32:51;7.40;93.60
26254;DHT22;53339;51.378;0.094;2023-12-04T12:35:19;7.30;93.60
26254;DHT22;53339;51.378;0.094;2023-12-04T12:37:47;7.40;93.70
26254;DHT22;53339;51.378;0.094;2023-12-04T12:40:15;7.40;93.70
26254;DHT22;53339;51.378;0.094;2023-12-04T12:42:42;7.30;93.60
26254;DHT22;53339;51.378;0.094;2023-12-04T12:45:11;7.30;93.60
26254;DHT22;53339;51.378;0.094;2023-12-04T12:47:43;7.30;93.60
26254;DHT22;53339;51.378;0.094;2023-12-04T12:50:11;7.30;93.70
26254;DHT22;53339;51.378;0.094;2023-12-04T12:52:42;7.30;93.60
26254;DHT22;53339;51.378;0.094;2023-12-04T12:55:11;7.20;93.60
26254;DHT22;53339;51.378;0.094;2023-12-04T12:57:38;7.30;93.60
26254;DHT22;53339;51.378;0.094;2023-12-04T13:00:06;7.40;93.70
26254;DHT22;53339;51.378;0.094;2023-12-04T13:02:35;7.30;93.60
26254;DHT22;53339;51.378;0.094;2023-12-04T13:05:05;7.20;93.60
26254;DHT22;53339;51.378;0.094;2023-12-04T13:07:34;7.20;93.60
26254;DHT22;53339;51.378;0.094;2023-12-04T13:10:02;7.30;93.70
26254;DHT22;53339;51.378;0.094;2023-12-04T13:12:32;7.20;93.60
26254;DHT22;53339;51.378;0.094;2023-12-04T13:15:01;7.10;93.60
26254;DHT22;53339;51.378;0.094;2023-12-04T13:17:29;7.10;93.60
26254;DHT22;53339;51.378;0.094;2023-12-04T13:19:57;7.20;93.70
26254;DHT22;53339;51.378;0.094;2023-12-04T13:22:27;7.20;93.60
26254;DHT22;53339;51.378;0.094;2023-12-04T13:24:55;7.00;93.60
26254;DHT22;53339;51.378;0.094;2023-12-04T13:27:23;7.10;93.70
26254;DHT22;53339;51.378;0.094;2023-12-04T13:29:52;7.10;93.70
26254;DHT22;53339;51.378;0.094;2023-12-04T13:32:19;7.10;93.70
26254;DHT22;53339;51.378;0.094;2023-12-04T13:34:47;7.10;93.60
26254;DHT22;53339;51.378;0.094;2023-12-04T13:37:15;7.00;93.70
26254;DHT22;53339;51.378;0.094;2023-12-04T13:39:43;7.10;93.70
26254;DHT22;53339;51.378;0.094;2023-12-04T13:42:24;7.20;93.70
26254;DHT22;53339;51.378;0.094;2023-12-04T13:45:11;7.00;93.60
26254;DHT22;53339;51.378;0.094;2023-12-04T13:47:40;7.10;93.70
26254;DHT22;53339;51.378;0.094;2023-12-04T13:50:08;7.10;93.70
26254;DHT22;53339;51.378;0.094;2023-12-04T13:52:36;7.10;93.70
26254;DHT22;53339;51.378;0.094;2023-12-04T13:55:06;7.00;93.70
26254;DHT22;53339;51.378;0.094;2023-12-04T13:57:47;7.00;93.70
26254;DHT22;53339;51.378;0.094;2023-12-04T14:00:37;7.10;93.70
26254;DHT22;53339;51.378;0.094;2023-12-04T14:03:05;7.10;93.70
26254;DHT22;53339;51.378;0.094;2023-12-04T14:05:34;7.00;93.60
26254;DHT22;53339;51.378;0.094;2023-12-04T14:08:03;7.00;93.70
26254;DHT22;53339;51.378;0.094;2023-12-04T14:10:32;7.00;93.70
26254;DHT22;53339;51.378;0.094;2023-12-04T14:13:00;7.00;93.70
26254;DHT22;53339;51.378;0.094;2023-12-04T14:15:27;7.00;93.60
26254;DHT22;53339;51.378;0.094;2023-12-04T14:17:55;6.90;93.70
26254;DHT22;53339;51.378;0.094;2023-12-04T14:20:23;7.00;93.70
26254;DHT22;53339;51.378;0.094;2023-12-04T14:22:52;7.00;93.70
26254;DHT22;53339;51.378;0.094;2023-12-04T14:25:20;6.90;93.70
26254;DHT22;53339;51.378;0.094;2023-12-04T14:27:48;7.00;93.70
26254;DHT22;53339;51.378;0.094;2023-12-04T14:30:16;7.00;93.70
26254;DHT22;53339;51.378;0.094;2023-12-04T14:32:43;7.10;93.70
26254;DHT22;53339;51.378;0.094;2023-12-04T14:35:14;7.00;93.70
26254;DHT22;53339;51.378;0.094;2023-12-04T14:37:42;6.90;93.70
26254;DHT22;53339;51.378;0.094;2023-12-04T14:40:12;7.00;93.70
26254;DHT22;53339;51.378;0.094;2023-12-04T14:42:42;7.00;93.70
26254;DHT22;53339;51.378;0.094;2023-12-04T14:45:10;6.90;93.60
26254;DHT22;53339;51.378;0.094;2023-12-04T14:47:39;6.90;93.70
26254;DHT22;53339;51.378;0.094;2023-12-04T14:50:09;6.90;93.70
26254;DHT22;53339;51.378;0.094;2023-12-04T14:52:40;6.90;93.70
26254;DHT22;53339;51.378;0.094;2023-12-04T14:55:15;6.90;93.60
26254;DHT22;53339;51.378;0.094;2023-12-04T14:57:52;6.60;93.40
26254;DHT22;53339;51.378;0.094;2023-12-04T15:00:25;6.40;93.40
26254;DHT22;53339;51.378;0.094;2023-12-04T15:03:12;6.50;93.50
26254;DHT22;53339;51.378;0.094;2023-12-04T15:05:58;6.50;93.50
26254;DHT22;53339;51.378;0.094;2023-12-04T15:08:41;6.40;93.40
26254;DHT22;53339;51.378;0.094;2023-12-04T15:11:14;6.40;93.50
26254;DHT22;53339;51.378;0.094;2023-12-04T15:14:09;6.40;93.60
26254;DHT22;53339;51.378;0.094;2023-12-04T15:16:44;6.40;93.50
26254;DHT22;53339;51.378;0.094;2023-12-04T15:19:22;6.30;93.40
26254;DHT22;53339;51.378;0.094;2023-12-04T15:22:16;6.30;93.50
26254;DHT22;53339;51.378;0.094;2023-12-04T15:24:43;6.40;93.60
26254;DHT22;53339;51.378;0.094;2023-12-04T15:27:11;6.40;93.60
26254;DHT22;53339;51.378;0.094;2023-12-04T15:29:38;6.40;93.50
26254;DHT22;53339;51.378;0.094;2023-12-04T15:32:08;6.40;93.60
26254;DHT22;53339;51.378;0.094;2023-12-04T15:34:35;6.50;93.70
26254;DHT22;53339;51.378;0.094;2023-12-04T15:37:03;6.50;93.60
26254;DHT22;53339;51.378;0.094;2023-12-04T15:39:31;6.30;93.50
26254;DHT22;53339;51.378;0.094;2023-12-04T15:41:59;6.20;93.60
26254;DHT22;53339;51.378;0.094;2023-12-04T15:44:27;6.30;93.60
26254;DHT22;53339;51.378;0.094;2023-12-04T15:46:55;6.40;93.60
26254;DHT22;53339;51.378;0.094;2023-12-04T15:49:25;6.20;93.50
26254;DHT22;53339;51.378;0.094;2023-12-04T15:51:53;6.20;93.50
26254;DHT22;53339;51.378;0.094;2023-12-04T15:54:21;6.20;93.60
26254;DHT22;53339;51.378;0.094;2023-12-04T15:56:52;6.30;93.60
26254;DHT22;53339;51.378;0.094;2023-12-04T15:59:20;6.20;93.50
26254;DHT22;53339;51.378;0.094;2023-12-04T16:01:48;6.20;93.60
26254;DHT22;53339;51.378;0.094;2023-12-04T16:04:17;6.30;93.60
26254;DHT22;53339;51.378;0.094;2023-12-04T16:06:48;6.30;93.70
26254;DHT22;53339;51.378;0.094;2023-12-04T16:09:16;6.20;93.60
26254;DHT22;53339;51.378;0.094;2023-12-04T16:11:44;6.20;93.60